createdAt,value
2022-12-01T00:00:23.007Z,21.92
2022-12-01T00:03:13.418Z,22.10
2022-12-01T00:05:42.272Z,22.05
2022-12-01T00:08:14.936Z,22.13
2022-12-01T00:10:44.179Z,21.65
2022-12-01T00:13:27.286Z,20.92
2022-12-01T00:16:16.826Z,21.58
2022-12-01T00:19:04.544Z,23.60
2022-12-01T00:21:44.585Z,22.30
2022-12-01T00:24:23.408Z,22.23
2022-12-01T00:27:03.721Z,22.13
2022-12-01T00:29:49.642Z,22.13
2022-12-01T00:32:27.725Z,22.13
2022-12-01T00:35:15.192Z,22.42
2022-12-01T00:38:02.518Z,22.50
2022-12-01T00:40:45.970Z,22.15
2022-12-01T00:43:27.036Z,22.50
2022-12-01T00:46:06.992Z,22.55
2022-12-01T00:48:54.645Z,21.25
2022-12-01T00:51:44.653Z,22.50
2022-12-01T00:54:23.834Z,20.63
2022-12-01T00:57:11.417Z,24.67
2022-12-01T00:59:52.806Z,23.92
2022-12-01T01:02:40.502Z,24.10
2022-12-01T01:05:28.045Z,22.77
2022-12-01T01:08:15.849Z,24.50
2022-12-01T01:11:00.968Z,24.83
2022-12-01T01:13:45.541Z,25.17
2022-12-01T01:16:22.723Z,24.85
2022-12-01T01:21:50.703Z,24.42
2022-12-01T01:24:32.064Z,23.63
2022-12-01T01:27:18.323Z,24.67
2022-12-01T01:30:07.399Z,25.10
2022-12-01T01:32:54.943Z,26.35
2022-12-01T01:35:40.517Z,26.95
2022-12-01T01:38:28.673Z,25.42
2022-12-01T01:41:10.852Z,26.38
2022-12-01T01:44:04.461Z,25.63
2022-12-01T01:46:52.990Z,25.42
2022-12-01T01:49:31.431Z,26.27
2022-12-01T01:51:59.805Z,26.60
2022-12-01T01:54:36.173Z,26.85
2022-12-01T01:57:06.398Z,27.75
2022-12-01T01:59:38.605Z,29.05
2022-12-01T02:02:10.566Z,28.55
2022-12-01T02:04:43.000Z,27.33
2022-12-01T02:07:12.935Z,27.05
2022-12-01T02:09:41.168Z,26.95
2022-12-01T02:12:12.415Z,27.80
2022-12-01T02:14:55.733Z,28.42
2022-12-01T02:17:45.342Z,28.10
2022-12-01T02:20:18.674Z,26.90
2022-12-01T02:23:05.756Z,28.75
2022-12-01T02:25:56.562Z,27.48
2022-12-01T02:28:41.387Z,27.65
2022-12-01T02:31:16.408Z,27.30
2022-12-01T02:33:49.068Z,27.25
2022-12-01T02:36:21.150Z,30.40
2022-12-01T02:39:08.853Z,25.95
2022-12-01T02:41:42.093Z,27.50
2022-12-01T02:44:27.450Z,26.52
2022-12-01T02:47:20.492Z,29.42
2022-12-01T02:49:56.259Z,26.35
2022-12-01T02:52:27.747Z,28.33
2022-12-01T02:55:04.614Z,27.48
2022-12-01T02:57:43.288Z,27.00
2022-12-01T03:00:23.673Z,26.10
2022-12-01T03:03:22.641Z,25.52
2022-12-01T03:06:15.404Z,30.13
2022-12-01T03:08:58.398Z,29.00
2022-12-01T03:11:31.828Z,27.23
2022-12-01T03:14:30.349Z,26.98
2022-12-01T03:17:05.655Z,29.63
2022-12-01T03:19:45.142Z,26.00
2022-12-01T03:22:18.098Z,27.95
2022-12-01T03:24:49.003Z,27.15
2022-12-01T03:27:21.198Z,25.23
2022-12-01T03:29:56.729Z,26.60
2022-12-01T03:32:28.429Z,26.38
2022-12-01T03:35:04.695Z,23.25
2022-12-01T03:37:47.582Z,23.10
2022-12-01T03:40:37.208Z,24.67
2022-12-01T03:43:16.520Z,24.65
2022-12-01T03:46:10.727Z,22.27
2022-12-01T03:48:52.826Z,22.63
2022-12-01T03:51:31.080Z,21.45
2022-12-01T03:54:02.181Z,22.33
2022-12-01T03:56:38.365Z,21.83
2022-12-01T03:59:12.230Z,20.70
2022-12-01T04:01:46.129Z,20.35
2022-12-01T04:04:30.586Z,20.67
2022-12-01T04:07:07.689Z,20.38
2022-12-01T04:09:49.099Z,23.27
2022-12-01T04:12:32.747Z,21.20
2022-12-01T04:15:14.472Z,25.83
2022-12-01T04:18:04.587Z,23.48
2022-12-01T04:20:52.467Z,22.85
2022-12-01T04:23:34.725Z,23.23
2022-12-01T04:26:04.821Z,20.30
2022-12-01T04:28:35.850Z,19.73
2022-12-01T04:31:05.100Z,21.90
2022-12-01T04:33:45.207Z,23.02
2022-12-01T04:36:13.755Z,23.63
2022-12-01T04:38:42.880Z,23.05
2022-12-01T04:41:14.947Z,21.38
2022-12-01T04:43:57.952Z,24.33
2022-12-01T04:46:28.836Z,21.48
2022-12-01T04:48:57.238Z,22.73
2022-12-01T04:51:25.805Z,22.42
2022-12-01T04:53:54.649Z,22.00
2022-12-01T04:56:25.490Z,23.50
2022-12-01T04:58:54.243Z,22.65
2022-12-01T05:01:23.086Z,24.10
2022-12-01T05:03:51.412Z,23.63
2022-12-01T05:06:28.969Z,26.13
2022-12-01T05:09:17.827Z,24.95
2022-12-01T05:12:00.518Z,26.17
2022-12-01T05:14:39.437Z,26.50
2022-12-01T05:17:26.770Z,27.83
2022-12-01T05:20:27.069Z,29.67
2022-12-01T05:23:15.152Z,26.20
2022-12-01T05:26:00.664Z,26.63
2022-12-01T05:28:42.258Z,27.05
2022-12-01T05:31:24.317Z,27.88
2022-12-01T05:33:56.202Z,23.85
2022-12-01T05:36:37.120Z,24.52
2022-12-01T05:39:05.782Z,23.58
2022-12-01T05:41:34.232Z,24.77
2022-12-01T05:44:05.310Z,25.90
2022-12-01T05:46:33.766Z,26.10
2022-12-01T05:49:02.178Z,28.48
2022-12-01T05:51:43.556Z,30.60
2022-12-01T05:54:23.382Z,29.10
2022-12-01T05:57:02.697Z,30.48
2022-12-01T05:59:34.735Z,30.23
2022-12-01T06:02:06.755Z,29.08
2022-12-01T06:04:52.808Z,28.60
2022-12-01T06:07:26.026Z,28.27
2022-12-01T06:09:58.226Z,25.63
2022-12-01T06:12:30.305Z,26.77
2022-12-01T06:14:58.638Z,22.50
2022-12-01T06:17:27.024Z,24.23
2022-12-01T06:19:55.884Z,24.90
2022-12-01T06:22:27.241Z,25.95
2022-12-01T06:24:55.944Z,25.23
2022-12-01T06:27:29.388Z,23.85
2022-12-01T06:30:00.555Z,22.27
2022-12-01T06:32:50.584Z,22.75
2022-12-01T06:35:23.113Z,22.80
2022-12-01T06:38:07.558Z,23.95
2022-12-01T06:40:46.148Z,23.65
2022-12-01T06:43:25.103Z,22.52
2022-12-01T06:46:05.983Z,22.13
2022-12-01T06:48:53.161Z,21.63
2022-12-01T06:51:21.540Z,22.02
2022-12-01T06:54:05.436Z,20.95
2022-12-01T06:56:53.528Z,21.77
2022-12-01T06:59:40.107Z,23.45
2022-12-01T07:02:25.159Z,20.75
2022-12-01T07:05:08.695Z,20.83
2022-12-01T07:07:59.431Z,21.90
2022-12-01T07:10:46.148Z,20.70
2022-12-01T07:13:33.074Z,23.60
2022-12-01T07:16:09.420Z,23.27
2022-12-01T07:18:57.085Z,23.90
2022-12-01T07:21:44.391Z,25.80
2022-12-01T07:24:22.726Z,23.95
2022-12-01T07:27:02.546Z,23.38
2022-12-01T07:29:47.537Z,23.70
2022-12-01T07:32:24.822Z,24.27
2022-12-01T07:35:09.159Z,19.20
2022-12-01T07:37:59.010Z,25.88
2022-12-01T07:40:32.350Z,24.33
2022-12-01T07:43:17.592Z,24.75
2022-12-01T07:46:08.673Z,25.30
2022-12-01T07:48:51.602Z,28.52
2022-12-01T07:51:21.560Z,26.10
2022-12-01T07:53:50.782Z,25.55
2022-12-01T07:56:22.564Z,27.10
2022-12-01T07:58:51.370Z,25.58
2022-12-01T08:01:23.174Z,26.02
2022-12-01T08:03:55.377Z,24.27
2022-12-01T08:06:25.307Z,24.25
2022-12-01T08:08:53.823Z,27.25
2022-12-01T08:11:26.697Z,23.95
2022-12-01T08:13:57.921Z,26.00
2022-12-01T08:16:27.346Z,27.20
2022-12-01T08:18:56.438Z,25.13
2022-12-01T08:21:27.894Z,29.27
2022-12-01T08:23:57.606Z,25.50
2022-12-01T08:26:28.042Z,25.92
2022-12-01T08:28:57.895Z,22.77
2022-12-01T08:31:28.415Z,25.63
2022-12-01T08:33:57.982Z,23.73
2022-12-01T08:36:41.644Z,24.13
2022-12-01T08:39:24.020Z,24.20
2022-12-01T08:42:04.797Z,22.58
2022-12-01T08:44:43.538Z,24.30
2022-12-01T08:47:17.172Z,23.05
2022-12-01T08:49:52.079Z,24.40
2022-12-01T08:52:22.814Z,23.83
2022-12-01T08:54:54.713Z,23.17
2022-12-01T08:57:37.897Z,23.27
2022-12-01T09:00:25.527Z,24.60
2022-12-01T09:03:13.111Z,25.05
2022-12-01T09:06:07.497Z,25.90
2022-12-01T09:08:38.666Z,24.73
2022-12-01T09:11:09.379Z,25.38
2022-12-01T09:13:39.565Z,24.55
2022-12-01T09:16:12.439Z,23.67
2022-12-01T09:18:41.821Z,24.45
2022-12-01T09:21:12.669Z,23.05
2022-12-01T09:23:41.590Z,23.58
2022-12-01T09:26:13.620Z,24.52
2022-12-01T09:28:42.294Z,23.63
2022-12-01T09:31:11.958Z,25.20
2022-12-01T09:33:47.282Z,22.20
2022-12-01T09:36:18.461Z,24.15
2022-12-01T09:39:08.267Z,25.75
2022-12-01T09:41:54.555Z,22.97
2022-12-01T09:44:39.812Z,22.75
2022-12-01T09:47:13.739Z,25.07
2022-12-01T09:49:51.772Z,23.38
2022-12-01T09:52:22.685Z,24.58
2022-12-01T09:55:01.427Z,25.42
2022-12-01T09:57:40.463Z,23.58
2022-12-01T10:00:26.406Z,23.73
2022-12-01T10:03:22.518Z,24.67
2022-12-01T10:06:28.453Z,24.35
2022-12-01T10:09:19.086Z,23.58
2022-12-01T10:11:48.707Z,23.03
2022-12-01T10:14:20.005Z,24.17
2022-12-01T10:16:52.511Z,24.20
2022-12-01T10:19:25.752Z,24.30
2022-12-01T10:22:05.426Z,23.73
2022-12-01T10:24:56.272Z,26.40
2022-12-01T10:27:29.583Z,25.75
2022-12-01T10:30:00.001Z,24.83
2022-12-01T10:32:36.377Z,26.58
2022-12-01T10:35:04.843Z,27.35
2022-12-01T10:37:35.837Z,25.23
2022-12-01T10:40:14.191Z,25.05
2022-12-01T10:43:02.302Z,24.98
2022-12-01T10:45:42.209Z,24.35
2022-12-01T10:48:26.322Z,25.58
2022-12-01T10:51:16.795Z,25.10
2022-12-01T10:53:45.299Z,23.80
2022-12-01T10:56:15.171Z,22.63
2022-12-01T10:58:47.948Z,21.95
2022-12-01T11:01:25.427Z,21.75
2022-12-01T11:03:56.942Z,20.50
2022-12-01T11:06:36.209Z,21.77
2022-12-01T11:09:07.537Z,20.35
2022-12-01T11:11:46.780Z,21.65
2022-12-01T11:14:22.213Z,21.17
2022-12-01T11:16:52.300Z,22.40
2022-12-01T11:19:28.642Z,21.60
2022-12-01T11:22:22.017Z,21.13
2022-12-01T11:24:53.523Z,23.00
2022-12-01T11:30:05.782Z,21.98
2022-12-01T11:32:57.943Z,23.13
2022-12-01T11:35:29.061Z,22.60
2022-12-01T11:40:57.535Z,22.73
2022-12-01T11:43:30.299Z,21.33
2022-12-01T11:48:42.381Z,21.05
2022-12-01T11:51:15.523Z,23.75
2022-12-01T11:53:48.826Z,23.20
2022-12-01T11:56:28.809Z,24.58
2022-12-01T11:59:11.487Z,25.90
2022-12-01T12:01:58.580Z,25.85
2022-12-01T12:04:45.390Z,23.95
2022-12-01T12:07:42.617Z,24.27
2022-12-01T12:10:16.711Z,23.63
2022-12-01T12:13:02.596Z,23.88
2022-12-01T12:15:51.528Z,26.30
2022-12-01T12:18:38.030Z,24.13
2022-12-01T12:21:06.038Z,27.42
2022-12-01T12:23:36.001Z,24.67
2022-12-01T12:26:08.256Z,25.60
2022-12-01T12:28:54.519Z,29.80
2022-12-01T12:34:02.273Z,29.05
2022-12-01T12:36:39.387Z,31.02
2022-12-01T12:39:19.603Z,30.33
2022-12-01T12:41:55.996Z,29.67
2022-12-01T12:44:38.795Z,29.52
2022-12-01T12:47:13.220Z,28.88
2022-12-01T12:49:47.939Z,28.92
2022-12-01T12:52:25.198Z,30.70
2022-12-01T12:54:57.115Z,31.42
2022-12-01T12:57:36.442Z,31.80
2022-12-01T13:00:05.117Z,33.53
2022-12-01T13:03:00.400Z,32.50
2022-12-01T13:05:35.670Z,33.47
2022-12-01T13:08:25.483Z,30.92
2022-12-01T13:11:04.802Z,31.45
2022-12-01T13:13:46.146Z,33.75
2022-12-01T13:16:23.413Z,32.90
2022-12-01T13:19:13.973Z,32.88
2022-12-01T13:21:44.333Z,32.55
2022-12-01T13:24:18.522Z,30.88
2022-12-01T13:26:56.638Z,30.95
2022-12-01T13:29:28.321Z,32.78
2022-12-01T13:31:56.973Z,30.73
2022-12-01T13:34:27.178Z,32.53
2022-12-01T13:36:56.462Z,31.80
2022-12-01T13:39:24.717Z,33.25
2022-12-01T13:42:01.332Z,33.95
2022-12-01T13:44:43.174Z,34.35
2022-12-01T13:47:12.213Z,31.98
2022-12-01T13:49:49.299Z,34.78
2022-12-01T13:52:28.365Z,35.47
2022-12-01T13:55:08.199Z,34.65
2022-12-01T13:57:39.952Z,34.28
2022-12-01T14:00:23.608Z,34.70
2022-12-01T14:05:24.280Z,35.17
2022-12-01T14:07:55.527Z,34.67
2022-12-01T14:10:25.778Z,35.75
2022-12-01T14:12:59.292Z,39.15
2022-12-01T14:15:33.618Z,34.85
2022-12-01T14:18:07.978Z,36.38
2022-12-01T14:20:45.845Z,36.13
2022-12-01T14:23:16.729Z,35.25
2022-12-01T14:25:59.547Z,36.88
2022-12-01T14:28:47.151Z,36.00
2022-12-01T14:31:15.873Z,35.92
2022-12-01T14:33:44.760Z,35.53
2022-12-01T14:36:18.502Z,34.35
2022-12-01T14:38:48.279Z,35.05
2022-12-01T14:41:33.266Z,37.30
2022-12-01T14:44:26.240Z,36.50
2022-12-01T14:47:00.733Z,35.03
2022-12-01T14:49:56.211Z,35.65
2022-12-01T14:52:37.507Z,34.90
2022-12-01T14:55:16.717Z,34.20
2022-12-01T14:57:53.982Z,37.38
2022-12-01T15:00:26.697Z,36.42
2022-12-01T15:03:16.598Z,37.28
2022-12-01T15:05:47.248Z,35.85
2022-12-01T15:08:42.114Z,38.40
2022-12-01T15:11:21.561Z,36.80
2022-12-01T15:13:51.744Z,37.63
2022-12-01T15:16:21.905Z,38.38
2022-12-01T15:18:51.837Z,39.05
2022-12-01T15:21:21.686Z,35.28
2022-12-01T15:24:13.114Z,37.42
2022-12-01T15:27:08.974Z,35.90
2022-12-01T15:29:47.017Z,38.63
2022-12-01T15:32:16.610Z,37.80
2022-12-01T15:34:48.618Z,36.78
2022-12-01T15:37:23.568Z,37.58
2022-12-01T15:43:15.852Z,34.45
2022-12-01T15:45:55.496Z,38.92
2022-12-01T15:48:32.647Z,36.58
2022-12-01T15:51:25.388Z,38.25
2022-12-01T15:53:58.953Z,38.03
2022-12-01T15:56:27.885Z,34.35
2022-12-01T15:59:04.003Z,34.30
2022-12-01T16:01:35.224Z,36.00
2022-12-01T16:04:14.090Z,34.90
2022-12-01T16:06:52.839Z,36.90
2022-12-01T16:09:26.134Z,35.42
2022-12-01T16:12:24.192Z,34.90
2022-12-01T16:14:55.567Z,34.97
2022-12-01T16:20:13.060Z,33.75
2022-12-01T16:22:58.792Z,35.45
2022-12-01T16:25:36.286Z,35.65
2022-12-01T16:28:24.141Z,35.67
2022-12-01T16:31:05.721Z,37.03
2022-12-01T16:34:00.304Z,34.10
2022-12-01T16:36:45.847Z,35.55
2022-12-01T16:39:26.234Z,35.67
2022-12-01T16:42:15.206Z,35.92
2022-12-01T16:44:45.581Z,37.35
2022-12-01T16:47:23.905Z,36.75
2022-12-01T16:49:56.365Z,37.10
2022-12-01T16:52:44.960Z,38.97
2022-12-01T16:55:29.107Z,38.45
2022-12-01T16:57:57.539Z,39.30
2022-12-01T17:00:27.445Z,37.55
2022-12-01T17:03:18.973Z,36.78
2022-12-01T17:05:48.868Z,37.58
2022-12-01T17:08:17.569Z,36.78
2022-12-01T17:10:47.163Z,34.80
2022-12-01T17:13:15.700Z,37.65
2022-12-01T17:15:48.383Z,35.85
2022-12-01T17:18:20.508Z,36.20
2022-12-01T17:21:02.315Z,35.25
2022-12-01T17:23:37.542Z,32.45
2022-12-01T17:26:12.410Z,35.17
2022-12-01T17:29:02.725Z,34.75
2022-12-01T17:31:34.795Z,37.38
2022-12-01T17:34:04.402Z,39.72
2022-12-01T17:36:33.201Z,38.03
2022-12-01T17:39:03.279Z,37.20
2022-12-01T17:41:35.895Z,38.30
2022-12-01T17:44:06.108Z,35.40
2022-12-01T17:46:37.208Z,34.92
2022-12-01T17:49:13.297Z,37.65
2022-12-01T17:52:00.268Z,36.22
2022-12-01T17:54:42.920Z,36.92
2022-12-01T17:57:18.672Z,34.67
2022-12-01T17:59:48.495Z,35.88
2022-12-01T18:02:17.732Z,35.42
2022-12-01T18:04:46.882Z,33.50
2022-12-01T18:07:18.199Z,33.70
2022-12-01T18:09:46.748Z,32.40
2022-12-01T18:12:15.440Z,32.22
2022-12-01T18:14:44.314Z,32.05
2022-12-01T18:17:13.743Z,31.92
2022-12-01T18:19:44.587Z,32.72
2022-12-01T18:22:16.626Z,32.38
2022-12-01T18:24:56.347Z,32.55
2022-12-01T18:27:41.717Z,34.83
2022-12-01T18:30:19.852Z,32.90
2022-12-01T18:33:03.501Z,35.20
2022-12-01T18:35:32.277Z,31.65
2022-12-01T18:38:01.424Z,30.25
2022-12-01T18:40:33.123Z,30.70
2022-12-01T18:43:04.126Z,31.95
2022-12-01T18:45:33.538Z,30.40
2022-12-01T18:48:05.659Z,30.77
2022-12-01T18:50:35.894Z,31.08
2022-12-01T18:53:05.064Z,29.00
2022-12-01T18:55:38.592Z,32.10
2022-12-01T18:58:09.708Z,30.58
2022-12-01T19:00:38.831Z,29.98
2022-12-01T19:03:23.691Z,29.08
2022-12-01T19:05:59.397Z,30.45
2022-12-01T19:08:45.436Z,28.45
2022-12-01T19:11:25.445Z,30.63
2022-12-01T19:14:00.648Z,31.25
2022-12-01T19:16:42.770Z,29.73
2022-12-01T19:19:19.440Z,32.28
2022-12-01T19:22:02.135Z,32.55
2022-12-01T19:24:44.834Z,30.77
2022-12-01T19:27:17.484Z,33.00
2022-12-01T19:30:09.000Z,34.63
2022-12-01T19:32:53.249Z,31.10
2022-12-01T19:35:32.714Z,33.17
2022-12-01T19:38:15.706Z,35.88
2022-12-01T19:41:00.546Z,33.78
2022-12-01T19:46:24.977Z,32.72
2022-12-01T19:49:12.941Z,34.90
2022-12-01T19:52:00.705Z,33.55
2022-12-01T19:54:42.768Z,32.65
2022-12-01T19:57:32.605Z,34.30
2022-12-01T20:00:05.067Z,31.92
2022-12-01T20:03:02.886Z,31.75
2022-12-01T20:05:49.815Z,29.83
2022-12-01T20:08:37.455Z,29.73
2022-12-01T20:11:06.401Z,30.52
2022-12-01T20:13:37.564Z,30.58
2022-12-01T20:16:25.309Z,29.02
2022-12-01T20:18:54.258Z,25.95
2022-12-01T20:21:43.006Z,25.98
2022-12-01T20:24:27.897Z,23.55
2022-12-01T20:27:10.785Z,22.85
2022-12-01T20:29:52.277Z,24.98
2022-12-01T20:32:38.567Z,22.00
2022-12-01T20:35:20.559Z,22.50
2022-12-01T20:38:08.147Z,21.17
2022-12-01T20:40:53.240Z,20.98
2022-12-01T20:43:37.869Z,20.25
2022-12-01T20:46:14.600Z,19.83
2022-12-01T20:49:02.363Z,18.45
2022-12-01T20:51:52.296Z,17.83
2022-12-01T20:54:41.767Z,19.92
2022-12-01T20:57:12.945Z,18.98
2022-12-01T20:59:41.585Z,17.30
2022-12-01T21:02:12.659Z,16.02
2022-12-01T21:04:57.705Z,18.02
2022-12-01T21:07:37.038Z,18.13
2022-12-01T21:10:20.141Z,19.35
2022-12-01T21:13:35.113Z,20.63
2022-12-01T21:16:25.500Z,17.98
2022-12-01T21:19:06.212Z,17.38
2022-12-01T21:21:47.145Z,17.85
2022-12-01T21:24:33.194Z,19.15
2022-12-01T21:27:15.567Z,18.70
2022-12-01T21:29:50.458Z,20.10
2022-12-01T21:32:31.148Z,18.85
2022-12-01T21:35:15.708Z,20.08
2022-12-01T21:37:50.549Z,20.45
2022-12-01T21:40:21.956Z,19.90
2022-12-01T21:42:54.291Z,21.00
2022-12-01T21:45:25.851Z,21.45
2022-12-01T21:48:22.493Z,24.55
2022-12-01T21:51:16.117Z,21.10
2022-12-01T21:53:54.328Z,23.23
2022-12-01T21:56:41.813Z,22.48
2022-12-01T21:59:19.676Z,22.30
2022-12-01T22:01:57.144Z,23.95
2022-12-01T22:07:11.248Z,22.58
2022-12-01T22:09:40.093Z,23.40
2022-12-01T22:12:13.537Z,24.95
2022-12-01T22:14:41.907Z,22.92
2022-12-01T22:17:10.830Z,22.80
2022-12-01T22:19:57.902Z,23.42
2022-12-01T22:22:39.402Z,27.25
2022-12-01T22:25:13.473Z,24.02
2022-12-01T22:27:48.924Z,25.10
2022-12-01T22:30:22.941Z,25.92
2022-12-01T22:33:01.361Z,24.83
2022-12-01T22:35:37.403Z,24.88
2022-12-01T22:38:14.939Z,24.95
2022-12-01T22:40:54.508Z,24.83
2022-12-01T22:43:27.613Z,25.00
2022-12-01T22:46:15.569Z,25.73
2022-12-01T22:48:48.659Z,24.98
2022-12-01T22:51:21.978Z,29.23
2022-12-01T22:54:10.631Z,33.35
2022-12-01T22:56:42.021Z,27.88
2022-12-01T22:59:17.160Z,31.90
2022-12-01T23:01:49.416Z,31.50
2022-12-01T23:04:55.734Z,30.87
2022-12-01T23:07:43.741Z,32.65
2022-12-01T23:10:20.480Z,30.90
2022-12-01T23:13:14.505Z,31.15
2022-12-01T23:15:46.203Z,29.35
2022-12-01T23:18:16.264Z,29.38
2022-12-01T23:20:47.097Z,33.42
2022-12-01T23:23:16.484Z,31.00
2022-12-01T23:25:58.638Z,28.92
2022-12-01T23:28:40.631Z,30.20
2022-12-01T23:31:27.632Z,32.47
2022-12-01T23:34:16.974Z,30.85
2022-12-01T23:36:47.424Z,32.47
2022-12-01T23:39:29.868Z,31.50
2022-12-01T23:42:10.130Z,30.80
2022-12-01T23:44:52.399Z,29.33
2022-12-01T23:47:24.697Z,28.65
2022-12-01T23:49:56.889Z,31.05
2022-12-01T23:52:28.707Z,28.73
2022-12-01T23:54:57.291Z,28.75
2022-12-01T23:57:25.970Z,29.10
2022-12-01T23:59:59.300Z,32.58
